sensor_id;sensor_type;location;lat;lon;timestamp;P1;durP1;ratioP1;P2;durP2;ratioP2
9459;SDS011;4768;42.664;23.240;2023-05-23T00:01:52;3.57;;;2.50;;
9459;SDS011;4768;42.664;23.240;2023-05-23T00:04:22;3.43;;;2.10;;
9459;SDS011;4768;42.664;23.240;2023-05-23T00:06:51;2.33;;;1.77;;
9459;SDS011;4768;42.664;23.240;2023-05-23T00:09:17;2.70;;;1.70;;
9459;SDS011;4768;42.664;23.240;2023-05-23T00:11:45;2.43;;;1.90;;
9459;SDS011;4768;42.664;23.240;2023-05-23T00:14:12;2.33;;;1.83;;
9459;SDS011;4768;42.664;23.240;2023-05-23T00:16:41;2.63;;;1.77;;
9459;SDS011;4768;42.664;23.240;2023-05-23T00:19:08;2.20;;;1.80;;
9459;SDS011;4768;42.664;23.240;2023-05-23T00:21:35;3.03;;;1.87;;
9459;SDS011;4768;42.664;23.240;2023-05-23T00:24:02;2.17;;;1.77;;
9459;SDS011;4768;42.664;23.240;2023-05-23T00:26:29;1.73;;;1.57;;
9459;SDS011;4768;42.664;23.240;2023-05-23T00:28:59;2.00;;;1.70;;
9459;SDS011;4768;42.664;23.240;2023-05-23T00:31:26;1.80;;;1.70;;
9459;SDS011;4768;42.664;23.240;2023-05-23T00:33:53;2.30;;;1.33;;
9459;SDS011;4768;42.664;23.240;2023-05-23T00:36:20;1.57;;;1.47;;
9459;SDS011;4768;42.664;23.240;2023-05-23T00:38:47;1.23;;;1.13;;
9459;SDS011;4768;42.664;23.240;2023-05-23T00:41:14;4.57;;;1.60;;
9459;SDS011;4768;42.664;23.240;2023-05-23T00:43:43;1.40;;;1.27;;
9459;SDS011;4768;42.664;23.240;2023-05-23T00:46:12;2.23;;;1.57;;
9459;SDS011;4768;42.664;23.240;2023-05-23T00:48:40;1.30;;;1.20;;
9459;SDS011;4768;42.664;23.240;2023-05-23T00:51:07;2.13;;;1.47;;
9459;SDS011;4768;42.664;23.240;2023-05-23T00:53:33;1.40;;;1.20;;
9459;SDS011;4768;42.664;23.240;2023-05-23T00:56:01;1.37;;;1.27;;
9459;SDS011;4768;42.664;23.240;2023-05-23T00:58:28;3.33;;;1.17;;
9459;SDS011;4768;42.664;23.240;2023-05-23T01:00:56;1.47;;;1.37;;
9459;SDS011;4768;42.664;23.240;2023-05-23T01:03:25;1.73;;;1.17;;
9459;SDS011;4768;42.664;23.240;2023-05-23T01:05:52;1.40;;;1.30;;
9459;SDS011;4768;42.664;23.240;2023-05-23T01:08:19;1.33;;;1.23;;
9459;SDS011;4768;42.664;23.240;2023-05-23T01:10:46;1.47;;;1.20;;
9459;SDS011;4768;42.664;23.240;2023-05-23T01:13:16;1.70;;;1.40;;
9459;SDS011;4768;42.664;23.240;2023-05-23T01:15:49;1.70;;;1.40;;
9459;SDS011;4768;42.664;23.240;2023-05-23T01:18:28;1.37;;;1.00;;
9459;SDS011;4768;42.664;23.240;2023-05-23T01:21:00;1.40;;;1.30;;
9459;SDS011;4768;42.664;23.240;2023-05-23T01:23:45;1.37;;;1.27;;
9459;SDS011;4768;42.664;23.240;2023-05-23T01:26:31;1.30;;;1.20;;
9459;SDS011;4768;42.664;23.240;2023-05-23T01:29:06;1.37;;;1.27;;
9459;SDS011;4768;42.664;23.240;2023-05-23T01:31:36;2.00;;;1.20;;
9459;SDS011;4768;42.664;23.240;2023-05-23T01:34:07;1.33;;;1.23;;
9459;SDS011;4768;42.664;23.240;2023-05-23T01:36:37;1.73;;;1.50;;
9459;SDS011;4768;42.664;23.240;2023-05-23T01:39:05;1.40;;;1.20;;
9459;SDS011;4768;42.664;23.240;2023-05-23T01:41:32;1.50;;;1.30;;
9459;SDS011;4768;42.664;23.240;2023-05-23T01:43:59;3.73;;;1.47;;
9459;SDS011;4768;42.664;23.240;2023-05-23T01:46:28;2.13;;;1.63;;
9459;SDS011;4768;42.664;23.240;2023-05-23T01:48:56;2.77;;;1.60;;
9459;SDS011;4768;42.664;23.240;2023-05-23T01:51:26;1.47;;;1.37;;
9459;SDS011;4768;42.664;23.240;2023-05-23T01:53:52;1.17;;;1.00;;
9459;SDS011;4768;42.664;23.240;2023-05-23T01:56:19;1.30;;;1.20;;
9459;SDS011;4768;42.664;23.240;2023-05-23T01:58:47;1.40;;;1.30;;
9459;SDS011;4768;42.664;23.240;2023-05-23T02:01:14;1.70;;;1.50;;
9459;SDS011;4768;42.664;23.240;2023-05-23T02:03:42;1.80;;;1.40;;
9459;SDS011;4768;42.664;23.240;2023-05-23T02:06:09;2.10;;;1.30;;
9459;SDS011;4768;42.664;23.240;2023-05-23T02:08:36;2.00;;;1.27;;
9459;SDS011;4768;42.664;23.240;2023-05-23T02:11:02;2.07;;;1.60;;
9459;SDS011;4768;42.664;23.240;2023-05-23T02:13:29;1.60;;;1.30;;
9459;SDS011;4768;42.664;23.240;2023-05-23T02:15:56;1.23;;;1.10;;
9459;SDS011;4768;42.664;23.240;2023-05-23T02:18:23;0.77;;;0.77;;
9459;SDS011;4768;42.664;23.240;2023-05-23T02:20:51;1.30;;;1.10;;
9459;SDS011;4768;42.664;23.240;2023-05-23T02:23:18;1.37;;;1.13;;
9459;SDS011;4768;42.664;23.240;2023-05-23T02:25:45;3.73;;;0.77;;
9459;SDS011;4768;42.664;23.240;2023-05-23T02:28:11;1.20;;;0.90;;
9459;SDS011;4768;42.664;23.240;2023-05-23T02:30:38;1.57;;;0.90;;
9459;SDS011;4768;42.664;23.240;2023-05-23T02:33:05;1.77;;;1.10;;
9459;SDS011;4768;42.664;23.240;2023-05-23T02:35:33;1.60;;;0.90;;
9459;SDS011;4768;42.664;23.240;2023-05-23T02:38:01;1.50;;;1.20;;
9459;SDS011;4768;42.664;23.240;2023-05-23T02:40:28;1.10;;;1.00;;
9459;SDS011;4768;42.664;23.240;2023-05-23T02:42:54;2.03;;;1.17;;
9459;SDS011;4768;42.664;23.240;2023-05-23T02:45:22;1.20;;;1.10;;
9459;SDS011;4768;42.664;23.240;2023-05-23T02:47:49;1.10;;;1.00;;
9459;SDS011;4768;42.664;23.240;2023-05-23T02:50:15;1.10;;;1.00;;
9459;SDS011;4768;42.664;23.240;2023-05-23T02:52:42;1.43;;;1.10;;
9459;SDS011;4768;42.664;23.240;2023-05-23T02:55:10;1.60;;;1.00;;
9459;SDS011;4768;42.664;23.240;2023-05-23T02:57:37;1.13;;;1.03;;
9459;SDS011;4768;42.664;23.240;2023-05-23T03:00:04;1.10;;;1.00;;
9459;SDS011;4768;42.664;23.240;2023-05-23T03:02:33;2.93;;;1.53;;
9459;SDS011;4768;42.664;23.240;2023-05-23T03:05:00;1.80;;;1.50;;
9459;SDS011;4768;42.664;23.240;2023-05-23T03:07:28;2.40;;;1.40;;
9459;SDS011;4768;42.664;23.240;2023-05-23T03:09:58;2.03;;;1.67;;
9459;SDS011;4768;42.664;23.240;2023-05-23T03:12:26;2.37;;;1.77;;
9459;SDS011;4768;42.664;23.240;2023-05-23T03:14:53;4.37;;;1.80;;
9459;SDS011;4768;42.664;23.240;2023-05-23T03:17:19;2.43;;;1.70;;
9459;SDS011;4768;42.664;23.240;2023-05-23T03:19:46;2.07;;;1.87;;
9459;SDS011;4768;42.664;23.240;2023-05-23T03:22:13;1.90;;;1.53;;
9459;SDS011;4768;42.664;23.240;2023-05-23T03:24:40;1.43;;;1.33;;
9459;SDS011;4768;42.664;23.240;2023-05-23T03:27:07;2.97;;;1.63;;
9459;SDS011;4768;42.664;23.240;2023-05-23T03:29:35;1.40;;;1.30;;
9459;SDS011;4768;42.664;23.240;2023-05-23T03:32:01;3.17;;;1.73;;
9459;SDS011;4768;42.664;23.240;2023-05-23T03:34:28;1.40;;;1.30;;
9459;SDS011;4768;42.664;23.240;2023-05-23T03:36:57;1.30;;;1.20;;
9459;SDS011;4768;42.664;23.240;2023-05-23T03:39:23;1.30;;;1.20;;
9459;SDS011;4768;42.664;23.240;2023-05-23T03:41:50;1.40;;;1.27;;
9459;SDS011;4768;42.664;23.240;2023-05-23T03:44:17;1.63;;;1.50;;
9459;SDS011;4768;42.664;23.240;2023-05-23T03:46:45;3.17;;;1.83;;
9459;SDS011;4768;42.664;23.240;2023-05-23T03:49:12;2.47;;;1.60;;
9459;SDS011;4768;42.664;23.240;2023-05-23T03:51:39;2.37;;;1.50;;
9459;SDS011;4768;42.664;23.240;2023-05-23T03:54:05;2.47;;;1.50;;
9459;SDS011;4768;42.664;23.240;2023-05-23T03:56:32;2.50;;;1.60;;
9459;SDS011;4768;42.664;23.240;2023-05-23T03:58:59;1.70;;;1.60;;
9459;SDS011;4768;42.664;23.240;2023-05-23T04:01:26;6.27;;;2.80;;
9459;SDS011;4768;42.664;23.240;2023-05-23T04:03:54;4.83;;;3.10;;
9459;SDS011;4768;42.664;23.240;2023-05-23T04:06:21;6.60;;;3.50;;
9459;SDS011;4768;42.664;23.240;2023-05-23T04:08:47;4.90;;;3.30;;
9459;SDS011;4768;42.664;23.240;2023-05-23T04:11:14;5.37;;;3.37;;
9459;SDS011;4768;42.664;23.240;2023-05-23T04:13:41;6.30;;;4.30;;
9459;SDS011;4768;42.664;23.240;2023-05-23T04:16:08;6.77;;;4.27;;
9459;SDS011;4768;42.664;23.240;2023-05-23T04:18:34;5.53;;;3.60;;
9459;SDS011;4768;42.664;23.240;2023-05-23T04:21:04;4.83;;;3.50;;
9459;SDS011;4768;42.664;23.240;2023-05-23T04:23:31;7.27;;;4.20;;
9459;SDS011;4768;42.664;23.240;2023-05-23T04:25:58;6.63;;;4.17;;
9459;SDS011;4768;42.664;23.240;2023-05-23T04:28:25;6.73;;;3.93;;
9459;SDS011;4768;42.664;23.240;2023-05-23T04:30:52;5.73;;;3.70;;
9459;SDS011;4768;42.664;23.240;2023-05-23T04:33:18;5.83;;;3.77;;
9459;SDS011;4768;42.664;23.240;2023-05-23T04:35:45;5.87;;;4.07;;
9459;SDS011;4768;42.664;23.240;2023-05-23T04:38:14;5.90;;;3.63;;
9459;SDS011;4768;42.664;23.240;2023-05-23T04:40:41;5.07;;;4.20;;
9459;SDS011;4768;42.664;23.240;2023-05-23T04:43:08;7.10;;;4.57;;
9459;SDS011;4768;42.664;23.240;2023-05-23T04:45:38;7.13;;;4.70;;
9459;SDS011;4768;42.664;23.240;2023-05-23T04:48:06;6.63;;;4.20;;
9459;SDS011;4768;42.664;23.240;2023-05-23T04:50:33;5.37;;;3.77;;
9459;SDS011;4768;42.664;23.240;2023-05-23T04:53:00;5.93;;;4.00;;
9459;SDS011;4768;42.664;23.240;2023-05-23T04:55:28;7.57;;;4.87;;
9459;SDS011;4768;42.664;23.240;2023-05-23T04:57:57;4.83;;;3.90;;
9459;SDS011;4768;42.664;23.240;2023-05-23T05:00:25;3.53;;;2.93;;
9459;SDS011;4768;42.664;23.240;2023-05-23T05:02:52;2.17;;;1.80;;
9459;SDS011;4768;42.664;23.240;2023-05-23T05:05:18;3.63;;;2.57;;
9459;SDS011;4768;42.664;23.240;2023-05-23T05:07:45;5.70;;;2.77;;
9459;SDS011;4768;42.664;23.240;2023-05-23T05:10:12;8.73;;;5.53;;
9459;SDS011;4768;42.664;23.240;2023-05-23T05:12:42;8.47;;;5.43;;
9459;SDS011;4768;42.664;23.240;2023-05-23T05:15:09;6.70;;;4.47;;
9459;SDS011;4768;42.664;23.240;2023-05-23T05:17:37;9.53;;;5.40;;
9459;SDS011;4768;42.664;23.240;2023-05-23T05:20:04;7.40;;;5.33;;
9459;SDS011;4768;42.664;23.240;2023-05-23T05:22:33;4.80;;;3.77;;
9459;SDS011;4768;42.664;23.240;2023-05-23T05:25:00;6.83;;;4.33;;
9459;SDS011;4768;42.664;23.240;2023-05-23T05:27:28;7.57;;;5.47;;
9459;SDS011;4768;42.664;23.240;2023-05-23T05:29:56;6.47;;;4.63;;
9459;SDS011;4768;42.664;23.240;2023-05-23T05:32:28;6.97;;;4.60;;
9459;SDS011;4768;42.664;23.240;2023-05-23T05:34:57;7.60;;;5.47;;
9459;SDS011;4768;42.664;23.240;2023-05-23T05:37:24;7.57;;;4.73;;
9459;SDS011;4768;42.664;23.240;2023-05-23T05:39:51;6.70;;;4.63;;
9459;SDS011;4768;42.664;23.240;2023-05-23T05:42:18;8.37;;;5.40;;
9459;SDS011;4768;42.664;23.240;2023-05-23T05:44:45;6.93;;;5.10;;
9459;SDS011;4768;42.664;23.240;2023-05-23T05:47:14;11.13;;;6.43;;
9459;SDS011;4768;42.664;23.240;2023-05-23T05:49:41;5.37;;;4.17;;
9459;SDS011;4768;42.664;23.240;2023-05-23T05:52:08;14.83;;;6.27;;
9459;SDS011;4768;42.664;23.240;2023-05-23T05:54:34;10.00;;;6.30;;
9459;SDS011;4768;42.664;23.240;2023-05-23T05:57:01;11.33;;;7.40;;
9459;SDS011;4768;42.664;23.240;2023-05-23T05:59:28;12.70;;;6.47;;
9459;SDS011;4768;42.664;23.240;2023-05-23T06:01:55;10.13;;;7.20;;
9459;SDS011;4768;42.664;23.240;2023-05-23T06:04:23;12.13;;;7.10;;
9459;SDS011;4768;42.664;23.240;2023-05-23T06:06:49;11.13;;;7.47;;
9459;SDS011;4768;42.664;23.240;2023-05-23T06:09:16;13.53;;;7.97;;
9459;SDS011;4768;42.664;23.240;2023-05-23T06:11:43;11.80;;;7.23;;
9459;SDS011;4768;42.664;23.240;2023-05-23T06:14:10;10.87;;;6.90;;
9459;SDS011;4768;42.664;23.240;2023-05-23T06:16:37;11.57;;;7.03;;
9459;SDS011;4768;42.664;23.240;2023-05-23T06:19:04;11.50;;;7.50;;
9459;SDS011;4768;42.664;23.240;2023-05-23T06:21:32;11.07;;;7.30;;
9459;SDS011;4768;42.664;23.240;2023-05-23T06:23:59;12.17;;;7.23;;
9459;SDS011;4768;42.664;23.240;2023-05-23T06:26:25;13.77;;;8.07;;
9459;SDS011;4768;42.664;23.240;2023-05-23T06:28:53;13.57;;;7.30;;
9459;SDS011;4768;42.664;23.240;2023-05-23T06:31:20;16.03;;;8.50;;
9459;SDS011;4768;42.664;23.240;2023-05-23T06:33:46;13.63;;;8.30;;
9459;SDS011;4768;42.664;23.240;2023-05-23T06:36:13;15.23;;;7.60;;
9459;SDS011;4768;42.664;23.240;2023-05-23T06:38:41;13.03;;;7.77;;
9459;SDS011;4768;42.664;23.240;2023-05-23T06:41:08;12.30;;;7.83;;
9459;SDS011;4768;42.664;23.240;2023-05-23T06:43:35;13.60;;;8.57;;
9459;SDS011;4768;42.664;23.240;2023-05-23T06:46:02;18.30;;;9.23;;
9459;SDS011;4768;42.664;23.240;2023-05-23T06:48:28;12.27;;;8.63;;
9459;SDS011;4768;42.664;23.240;2023-05-23T06:50:55;15.70;;;9.00;;
9459;SDS011;4768;42.664;23.240;2023-05-23T06:53:22;13.40;;;8.63;;
9459;SDS011;4768;42.664;23.240;2023-05-23T06:55:50;16.53;;;9.10;;
9459;SDS011;4768;42.664;23.240;2023-05-23T06:58:16;14.00;;;9.00;;
9459;SDS011;4768;42.664;23.240;2023-05-23T07:00:43;14.07;;;9.47;;
9459;SDS011;4768;42.664;23.240;2023-05-23T07:03:10;15.27;;;9.23;;
9459;SDS011;4768;42.664;23.240;2023-05-23T07:05:37;13.80;;;8.57;;
9459;SDS011;4768;42.664;23.240;2023-05-23T07:08:03;14.33;;;8.03;;
9459;SDS011;4768;42.664;23.240;2023-05-23T07:10:31;13.33;;;9.23;;
9459;SDS011;4768;42.664;23.240;2023-05-23T07:13:00;13.33;;;8.80;;
9459;SDS011;4768;42.664;23.240;2023-05-23T07:15:26;11.10;;;7.60;;
9459;SDS011;4768;42.664;23.240;2023-05-23T07:17:53;12.40;;;7.60;;
9459;SDS011;4768;42.664;23.240;2023-05-23T07:20:20;10.70;;;7.20;;
9459;SDS011;4768;42.664;23.240;2023-05-23T07:22:47;12.37;;;8.00;;
9459;SDS011;4768;42.664;23.240;2023-05-23T07:25:15;8.73;;;6.87;;
9459;SDS011;4768;42.664;23.240;2023-05-23T07:27:42;12.30;;;7.87;;
9459;SDS011;4768;42.664;23.240;2023-05-23T07:30:10;11.40;;;7.73;;
9459;SDS011;4768;42.664;23.240;2023-05-23T07:32:38;10.07;;;7.20;;
9459;SDS011;4768;42.664;23.240;2023-05-23T07:35:05;11.63;;;7.47;;
9459;SDS011;4768;42.664;23.240;2023-05-23T07:37:32;12.03;;;7.70;;
9459;SDS011;4768;42.664;23.240;2023-05-23T07:39:59;12.57;;;8.40;;
9459;SDS011;4768;42.664;23.240;2023-05-23T07:42:26;16.57;;;8.70;;
9459;SDS011;4768;42.664;23.240;2023-05-23T07:44:52;15.00;;;9.10;;
9459;SDS011;4768;42.664;23.240;2023-05-23T07:47:20;14.50;;;8.37;;
9459;SDS011;4768;42.664;23.240;2023-05-23T07:49:48;12.20;;;8.03;;
9459;SDS011;4768;42.664;23.240;2023-05-23T07:52:16;10.13;;;7.17;;
9459;SDS011;4768;42.664;23.240;2023-05-23T07:54:42;13.07;;;8.10;;
9459;SDS011;4768;42.664;23.240;2023-05-23T07:57:09;14.00;;;8.23;;
9459;SDS011;4768;42.664;23.240;2023-05-23T07:59:36;13.67;;;7.80;;
9459;SDS011;4768;42.664;23.240;2023-05-23T08:02:03;12.00;;;8.37;;
9459;SDS011;4768;42.664;23.240;2023-05-23T08:04:32;12.20;;;8.13;;
9459;SDS011;4768;42.664;23.240;2023-05-23T08:06:58;10.87;;;7.60;;
9459;SDS011;4768;42.664;23.240;2023-05-23T08:09:25;11.70;;;7.37;;
9459;SDS011;4768;42.664;23.240;2023-05-23T08:11:52;12.33;;;7.93;;
9459;SDS011;4768;42.664;23.240;2023-05-23T08:14:19;12.10;;;7.43;;
9459;SDS011;4768;42.664;23.240;2023-05-23T08:16:45;10.98;;;7.15;;
9459;SDS011;4768;42.664;23.240;2023-05-23T08:19:13;12.75;;;7.90;;
9459;SDS011;4768;42.664;23.240;2023-05-23T08:21:41;8.47;;;6.30;;
9459;SDS011;4768;42.664;23.240;2023-05-23T08:24:08;9.60;;;5.97;;
9459;SDS011;4768;42.664;23.240;2023-05-23T08:26:36;9.13;;;6.17;;
9459;SDS011;4768;42.664;23.240;2023-05-23T08:29:03;11.47;;;6.77;;
9459;SDS011;4768;42.664;23.240;2023-05-23T08:31:31;8.13;;;5.67;;
9459;SDS011;4768;42.664;23.240;2023-05-23T08:33:58;12.80;;;7.80;;
9459;SDS011;4768;42.664;23.240;2023-05-23T08:36:25;13.57;;;7.20;;
9459;SDS011;4768;42.664;23.240;2023-05-23T08:38:53;15.30;;;8.67;;
9459;SDS011;4768;42.664;23.240;2023-05-23T08:41:21;12.67;;;8.53;;
9459;SDS011;4768;42.664;23.240;2023-05-23T08:43:48;12.70;;;7.77;;
9459;SDS011;4768;42.664;23.240;2023-05-23T08:46:15;11.20;;;7.83;;
9459;SDS011;4768;42.664;23.240;2023-05-23T08:48:42;14.40;;;8.87;;
9459;SDS011;4768;42.664;23.240;2023-05-23T08:51:14;14.77;;;8.10;;
9459;SDS011;4768;42.664;23.240;2023-05-23T08:53:42;16.10;;;7.97;;
9459;SDS011;4768;42.664;23.240;2023-05-23T08:56:13;12.00;;;7.80;;
9459;SDS011;4768;42.664;23.240;2023-05-23T08:58:40;8.57;;;6.40;;
9459;SDS011;4768;42.664;23.240;2023-05-23T09:01:08;12.38;;;6.45;;
9459;SDS011;4768;42.664;23.240;2023-05-23T09:03:35;9.55;;;6.72;;
9459;SDS011;4768;42.664;23.240;2023-05-23T09:06:03;10.25;;;7.35;;
9459;SDS011;4768;42.664;23.240;2023-05-23T09:08:32;8.35;;;5.45;;
9459;SDS011;4768;42.664;23.240;2023-05-23T09:10:59;10.27;;;6.60;;
9459;SDS011;4768;42.664;23.240;2023-05-23T09:13:28;7.75;;;5.75;;
9459;SDS011;4768;42.664;23.240;2023-05-23T09:15:56;6.57;;;4.13;;
9459;SDS011;4768;42.664;23.240;2023-05-23T09:18:26;6.88;;;3.97;;
9459;SDS011;4768;42.664;23.240;2023-05-23T09:20:58;5.03;;;3.38;;
9459;SDS011;4768;42.664;23.240;2023-05-23T09:23:25;7.40;;;3.92;;
9459;SDS011;4768;42.664;23.240;2023-05-23T09:25:51;5.15;;;3.65;;
9459;SDS011;4768;42.664;23.240;2023-05-23T09:28:18;4.80;;;3.40;;
9459;SDS011;4768;42.664;23.240;2023-05-23T09:30:46;3.43;;;2.83;;
9459;SDS011;4768;42.664;23.240;2023-05-23T09:33:13;3.83;;;3.10;;
9459;SDS011;4768;42.664;23.240;2023-05-23T09:35:42;3.07;;;2.47;;
9459;SDS011;4768;42.664;23.240;2023-05-23T09:38:10;4.57;;;2.77;;
9459;SDS011;4768;42.664;23.240;2023-05-23T09:40:37;9.90;;;3.67;;
9459;SDS011;4768;42.664;23.240;2023-05-23T09:43:10;3.47;;;2.47;;
9459;SDS011;4768;42.664;23.240;2023-05-23T09:45:37;3.00;;;2.33;;
9459;SDS011;4768;42.664;23.240;2023-05-23T09:48:06;2.83;;;2.30;;
9459;SDS011;4768;42.664;23.240;2023-05-23T09:50:38;2.40;;;2.20;;
9459;SDS011;4768;42.664;23.240;2023-05-23T09:53:05;4.90;;;2.77;;
9459;SDS011;4768;42.664;23.240;2023-05-23T09:55:32;3.67;;;2.00;;
9459;SDS011;4768;42.664;23.240;2023-05-23T09:57:58;2.40;;;2.13;;
9459;SDS011;4768;42.664;23.240;2023-05-23T10:00:26;2.20;;;2.00;;
9459;SDS011;4768;42.664;23.240;2023-05-23T10:02:54;2.87;;;2.63;;
9459;SDS011;4768;42.664;23.240;2023-05-23T10:05:32;2.80;;;2.20;;
9459;SDS011;4768;42.664;23.240;2023-05-23T10:08:01;3.23;;;2.03;;
9459;SDS011;4768;42.664;23.240;2023-05-23T10:10:32;3.47;;;2.23;;
9459;SDS011;4768;42.664;23.240;2023-05-23T10:13:02;2.33;;;2.00;;
9459;SDS011;4768;42.664;23.240;2023-05-23T10:15:33;3.10;;;2.00;;
9459;SDS011;4768;42.664;23.240;2023-05-23T10:18:05;2.97;;;1.87;;
9459;SDS011;4768;42.664;23.240;2023-05-23T10:20:38;1.97;;;1.83;;
9459;SDS011;4768;42.664;23.240;2023-05-23T10:23:07;4.73;;;2.00;;
9459;SDS011;4768;42.664;23.240;2023-05-23T10:25:35;2.40;;;2.20;;
9459;SDS011;4768;42.664;23.240;2023-05-23T10:28:03;2.10;;;1.90;;
9459;SDS011;4768;42.664;23.240;2023-05-23T10:30:30;2.05;;;1.92;;
9459;SDS011;4768;42.664;23.240;2023-05-23T10:32:57;2.22;;;2.03;;
9459;SDS011;4768;42.664;23.240;2023-05-23T10:35:30;1.83;;;1.73;;
9459;SDS011;4768;42.664;23.240;2023-05-23T10:38:08;4.38;;;2.63;;
9459;SDS011;4768;42.664;23.240;2023-05-23T10:40:46;3.13;;;2.00;;
9459;SDS011;4768;42.664;23.240;2023-05-23T10:43:19;2.87;;;1.80;;
9459;SDS011;4768;42.664;23.240;2023-05-23T10:45:53;2.67;;;2.00;;
9459;SDS011;4768;42.664;23.240;2023-05-23T10:48:20;2.08;;;1.88;;
9459;SDS011;4768;42.664;23.240;2023-05-23T10:51:02;2.90;;;2.23;;
9459;SDS011;4768;42.664;23.240;2023-05-23T10:53:30;3.42;;;2.17;;
9459;SDS011;4768;42.664;23.240;2023-05-23T10:55:59;2.28;;;2.05;;
9459;SDS011;4768;42.664;23.240;2023-05-23T10:58:28;2.13;;;1.92;;
9459;SDS011;4768;42.664;23.240;2023-05-23T11:00:56;3.13;;;2.10;;
9459;SDS011;4768;42.664;23.240;2023-05-23T11:03:29;2.20;;;2.00;;
9459;SDS011;4768;42.664;23.240;2023-05-23T11:05:57;2.10;;;1.90;;
9459;SDS011;4768;42.664;23.240;2023-05-23T11:08:26;2.30;;;2.10;;
9459;SDS011;4768;42.664;23.240;2023-05-23T11:10:54;2.20;;;2.00;;
9459;SDS011;4768;42.664;23.240;2023-05-23T11:13:23;2.40;;;2.20;;
9459;SDS011;4768;42.664;23.240;2023-05-23T11:15:51;2.25;;;1.80;;
9459;SDS011;4768;42.664;23.240;2023-05-23T11:18:21;2.80;;;2.00;;
9459;SDS011;4768;42.664;23.240;2023-05-23T11:20:52;2.10;;;1.87;;
9459;SDS011;4768;42.664;23.240;2023-05-23T11:23:20;4.17;;;2.27;;
9459;SDS011;4768;42.664;23.240;2023-05-23T11:25:49;2.10;;;1.90;;
9459;SDS011;4768;42.664;23.240;2023-05-23T11:28:18;3.30;;;2.22;;
9459;SDS011;4768;42.664;23.240;2023-05-23T11:30:47;2.10;;;1.90;;
9459;SDS011;4768;42.664;23.240;2023-05-23T11:33:14;2.17;;;1.97;;
9459;SDS011;4768;42.664;23.240;2023-05-23T11:35:43;2.85;;;2.00;;
9459;SDS011;4768;42.664;23.240;2023-05-23T11:38:11;2.50;;;1.73;;
9459;SDS011;4768;42.664;23.240;2023-05-23T11:40:39;2.22;;;1.70;;
9459;SDS011;4768;42.664;23.240;2023-05-23T11:43:09;5.95;;;2.08;;
9459;SDS011;4768;42.664;23.240;2023-05-23T11:45:37;2.55;;;2.08;;
9459;SDS011;4768;42.664;23.240;2023-05-23T11:48:05;2.47;;;2.00;;
9459;SDS011;4768;42.664;23.240;2023-05-23T11:50:32;1.98;;;1.75;;
9459;SDS011;4768;42.664;23.240;2023-05-23T11:53:07;2.35;;;1.80;;
9459;SDS011;4768;42.664;23.240;2023-05-23T11:55:34;2.40;;;1.75;;
9459;SDS011;4768;42.664;23.240;2023-05-23T11:58:00;2.53;;;1.83;;
9459;SDS011;4768;42.664;23.240;2023-05-23T12:00:28;2.95;;;1.98;;
9459;SDS011;4768;42.664;23.240;2023-05-23T12:02:55;3.05;;;2.40;;
9459;SDS011;4768;42.664;23.240;2023-05-23T12:05:22;2.08;;;1.88;;
9459;SDS011;4768;42.664;23.240;2023-05-23T12:07:49;2.17;;;1.70;;
9459;SDS011;4768;42.664;23.240;2023-05-23T12:10:16;1.80;;;1.70;;
9459;SDS011;4768;42.664;23.240;2023-05-23T12:12:44;2.15;;;1.75;;
9459;SDS011;4768;42.664;23.240;2023-05-23T12:15:11;3.30;;;1.92;;
9459;SDS011;4768;42.664;23.240;2023-05-23T12:17:39;2.05;;;1.83;;
9459;SDS011;4768;42.664;23.240;2023-05-23T12:20:10;2.67;;;2.00;;
9459;SDS011;4768;42.664;23.240;2023-05-23T12:22:37;2.10;;;1.90;;
9459;SDS011;4768;42.664;23.240;2023-05-23T12:25:07;2.00;;;1.90;;
9459;SDS011;4768;42.664;23.240;2023-05-23T12:27:34;1.95;;;1.75;;
9459;SDS011;4768;42.664;23.240;2023-05-23T12:30:05;2.08;;;1.85;;
9459;SDS011;4768;42.664;23.240;2023-05-23T12:32:33;2.25;;;2.03;;
9459;SDS011;4768;42.664;23.240;2023-05-23T12:35:02;1.83;;;1.73;;
9459;SDS011;4768;42.664;23.240;2023-05-23T12:37:29;1.92;;;1.73;;
9459;SDS011;4768;42.664;23.240;2023-05-23T12:39:56;3.05;;;1.92;;
9459;SDS011;4768;42.664;23.240;2023-05-23T12:42:23;1.83;;;1.73;;
9459;SDS011;4768;42.664;23.240;2023-05-23T12:44:50;2.25;;;1.90;;
9459;SDS011;4768;42.664;23.240;2023-05-23T12:47:17;2.70;;;1.90;;
9459;SDS011;4768;42.664;23.240;2023-05-23T12:49:44;2.30;;;1.65;;
9459;SDS011;4768;42.664;23.240;2023-05-23T12:52:13;2.80;;;1.83;;
9459;SDS011;4768;42.664;23.240;2023-05-23T12:54:40;2.72;;;2.30;;
9459;SDS011;4768;42.664;23.240;2023-05-23T12:57:07;2.35;;;1.92;;
9459;SDS011;4768;42.664;23.240;2023-05-23T12:59:34;2.10;;;1.90;;
9459;SDS011;4768;42.664;23.240;2023-05-23T13:02:00;2.30;;;1.95;;
9459;SDS011;4768;42.664;23.240;2023-05-23T13:04:27;2.38;;;2.05;;
9459;SDS011;4768;42.664;23.240;2023-05-23T13:06:54;2.45;;;2.15;;
9459;SDS011;4768;42.664;23.240;2023-05-23T13:09:23;2.55;;;1.98;;
9459;SDS011;4768;42.664;23.240;2023-05-23T13:11:49;3.13;;;2.13;;
9459;SDS011;4768;42.664;23.240;2023-05-23T13:14:16;2.03;;;1.83;;
9459;SDS011;4768;42.664;23.240;2023-05-23T13:16:43;3.22;;;2.10;;
9459;SDS011;4768;42.664;23.240;2023-05-23T13:19:10;2.00;;;1.80;;
9459;SDS011;4768;42.664;23.240;2023-05-23T13:21:36;1.90;;;1.65;;
9459;SDS011;4768;42.664;23.240;2023-05-23T13:24:03;2.03;;;1.90;;
9459;SDS011;4768;42.664;23.240;2023-05-23T13:26:32;1.77;;;1.60;;
9459;SDS011;4768;42.664;23.240;2023-05-23T13:28:58;1.70;;;1.60;;
9459;SDS011;4768;42.664;23.240;2023-05-23T13:31:25;2.05;;;1.70;;
9459;SDS011;4768;42.664;23.240;2023-05-23T13:33:52;4.22;;;2.08;;
9459;SDS011;4768;42.664;23.240;2023-05-23T13:36:19;1.98;;;1.77;;
9459;SDS011;4768;42.664;23.240;2023-05-23T13:38:46;2.33;;;1.80;;
9459;SDS011;4768;42.664;23.240;2023-05-23T13:41:12;1.75;;;1.65;;
9459;SDS011;4768;42.664;23.240;2023-05-23T13:43:40;2.03;;;1.60;;
9459;SDS011;4768;42.664;23.240;2023-05-23T13:46:07;1.70;;;1.60;;
9459;SDS011;4768;42.664;23.240;2023-05-23T13:48:34;3.40;;;1.73;;
9459;SDS011;4768;42.664;23.240;2023-05-23T13:51:01;2.80;;;1.90;;
9459;SDS011;4768;42.664;23.240;2023-05-23T13:53:28;2.45;;;1.90;;
9459;SDS011;4768;42.664;23.240;2023-05-23T13:55:55;2.42;;;2.22;;
9459;SDS011;4768;42.664;23.240;2023-05-23T13:58:22;2.47;;;1.77;;
9459;SDS011;4768;42.664;23.240;2023-05-23T14:00:50;1.73;;;1.63;;
9459;SDS011;4768;42.664;23.240;2023-05-23T14:03:17;2.75;;;1.60;;
9459;SDS011;4768;42.664;23.240;2023-05-23T14:05:44;2.17;;;1.60;;
9459;SDS011;4768;42.664;23.240;2023-05-23T14:08:11;2.08;;;1.70;;
9459;SDS011;4768;42.664;23.240;2023-05-23T14:10:38;1.83;;;1.52;;
9459;SDS011;4768;42.664;23.240;2023-05-23T14:13:05;2.03;;;1.70;;
9459;SDS011;4768;42.664;23.240;2023-05-23T14:15:32;2.05;;;1.50;;
9459;SDS011;4768;42.664;23.240;2023-05-23T14:18:00;1.60;;;1.50;;
9459;SDS011;4768;42.664;23.240;2023-05-23T14:20:26;2.33;;;1.85;;
9459;SDS011;4768;42.664;23.240;2023-05-23T14:22:54;3.65;;;1.85;;
9459;SDS011;4768;42.664;23.240;2023-05-23T14:25:20;1.95;;;1.85;;
9459;SDS011;4768;42.664;23.240;2023-05-23T14:27:47;2.13;;;1.90;;
9459;SDS011;4768;42.664;23.240;2023-05-23T14:30:14;3.70;;;1.88;;
9459;SDS011;4768;42.664;23.240;2023-05-23T14:32:40;2.30;;;1.83;;
9459;SDS011;4768;42.664;23.240;2023-05-23T14:35:09;2.22;;;2.03;;
9459;SDS011;4768;42.664;23.240;2023-05-23T14:37:37;2.10;;;1.90;;
9459;SDS011;4768;42.664;23.240;2023-05-23T14:40:04;3.67;;;2.10;;
9459;SDS011;4768;42.664;23.240;2023-05-23T14:42:33;2.38;;;2.08;;
9459;SDS011;4768;42.664;23.240;2023-05-23T14:45:00;2.53;;;2.03;;
9459;SDS011;4768;42.664;23.240;2023-05-23T14:47:27;2.67;;;1.95;;
9459;SDS011;4768;42.664;23.240;2023-05-23T14:49:54;2.83;;;2.10;;
9459;SDS011;4768;42.664;23.240;2023-05-23T14:52:22;3.55;;;2.15;;
9459;SDS011;4768;42.664;23.240;2023-05-23T14:54:49;2.92;;;2.20;;
9459;SDS011;4768;42.664;23.240;2023-05-23T14:57:16;6.97;;;2.08;;
9459;SDS011;4768;42.664;23.240;2023-05-23T14:59:42;2.22;;;2.03;;
9459;SDS011;4768;42.664;23.240;2023-05-23T15:02:10;2.25;;;1.75;;